Latest Coastal Weather Observations for Devonport Airport

IDT60701

Issued at 4:02 pm EST Saturday 28 May 2016 (issued every 10 minutes, with the page automatically refreshed every 10 minutes)

About coastal observations | Map of coastal stations | Coastal observations for TAS | Marine services | Other Formats
Station Details ID: 091126 Name: DEVONPORT AIRPORT Lat: -41.17 Lon: 146.43 Height: 8.0 m
Data from the previous 72 hours. | See also: Recent months at Devonport Airport
Date/Time
EST
Temp

°C
Wind Pressure Rain
since 9am
mm
Weather Cloud Vis
km
Sea
Height
m
Swell
Dir
 
Speed
knots
Gust
knots
hPa Trend Height
m
Period
s
Dir
28/04:00pm 13.3 SW 7 6 1007.8 - - - Mostly cloudy 50 - - - -
28/03:30pm 13.9 W 6 10 1007.7 - 0.2 - Partly cloudy 10 - - - -
28/03:00pm 13.3 NW 7 8 1007.6 - 0.2 - - 10 - - - -
28/02:30pm 13.5 WNW 6 8 1007.4 - 0.2 - - 10 - - - -
28/02:00pm 12.9 NW 6 9 1007.3 - 0.2 - - 10 - - - -
28/01:30pm 12.0 NNW 5 7 1007.5 - 0.0 - - 10 - - - -
28/01:00pm 12.1 NW 8 9 1007.6 - 0.0 - - 10 - - - -
28/12:30pm 12.0 N 6 7 1007.8 - 0.0 - - 10 - - - -
28/12:00pm 12.4 N 1 5 1007.9 - 0.0 - - 10 - - - -
28/11:30am 11.8 SE 2 4 1008.3 - 0.0 - - 10 - - - -
28/11:00am 10.3 SSE 5 7 1008.6 - 0.0 - - 10 - - - -
28/10:30am 9.1 S 6 7 1008.8 - 0.0 - - 10 - - - -
28/10:00am 7.8 SSW 7 8 1008.8 - 0.0 - - 10 - - - -
28/09:30am 6.4 S 6 9 1008.7 - 0.0 - - 10 - - - -
28/09:00am 5.6 S 6 8 1008.8 - 0.0 - - 10 - - - -
28/08:30am 3.3 SSW 6 8 1008.8 - 0.0 - - 10 - - - -
28/08:00am 2.5 SSW 8 9 1008.7 - 0.0 - - 10 - - - -
28/07:30am 1.9 SSW 7 9 1008.6 - 0.0 - - 10 - - - -
28/07:00am 2.2 S 8 9 1008.5 - 0.0 - - 10 - - - -
28/06:30am 2.7 S 9 10 1008.1 - 0.0 - - 10 - - - -
28/06:00am 3.0 S 7 9 1008.0 - 0.0 - - 10 - - - -
28/05:30am 3.1 S 8 9 1007.9 - 0.0 - - 10 - - - -
28/05:00am 3.2 SSE 9 10 1007.8 - 0.0 - - 10 - - - -
28/04:30am 3.6 SSW 8 11 1007.8 - 0.0 - - 10 - - - -
28/04:00am 3.9 S 7 9 1007.7 - 0.0 - - 10 - - - -
28/03:30am 3.8 S 6 8 1007.8 - 0.0 - - 10 - - - -
28/03:00am 4.3 S 6 7 1007.8 - 0.0 - - 10 - - - -
28/02:30am 4.2 S 6 7 1008.0 - 0.0 - - 10 - - - -
28/02:00am 4.6 S 5 6 1008.1 - 0.0 - - 10 - - - -
28/01:30am 5.0 SSW 1 5 1007.9 - 0.0 - - 10 - - - -
28/01:00am 5.3 S 3 4 1007.8 - 0.0 - - 10 - - - -
28/12:30am 5.6 S 4 6 1007.9 - 0.0 - - 10 - - - -
28/12:00am 6.1 SSE 7 8 1007.8 - 0.0 - - 10 - - - -
 
Date/Time
EST
Temp

°C
Wind Pressure Rain
since 9am
mm
Weather Cloud Vis
km
Sea
Height
m
Swell
Dir
 
Speed
knots
Gust
knots
hPa Trend Height
m
Period
s
Dir
27/11:30pm 6.2 SSE 9 10 1007.8 - 0.0 - - 10 - - - -
27/11:00pm 6.2 S 8 9 1007.8 - 0.0 - - 10 - - - -
27/10:30pm 5.8 S 6 8 1007.8 - 0.0 - - 10 - - - -
27/10:00pm 6.3 S 6 8 1007.7 - 0.0 - Partly cloudy 10 - - - -
27/09:30pm 6.8 S 8 9 1007.6 - 0.0 - - 10 - - - -
27/09:00pm 6.9 S 7 9 1007.4 - 0.0 - - 10 - - - -
27/08:30pm 7.8 S 9 11 1007.2 - 0.0 - Partly cloudy 10 - - - -
27/08:00pm 8.6 S 9 11 1007.0 - 0.0 - Cloudy 10 - - - -
27/07:30pm 8.7 S 7 9 1007.0 - 0.0 - Cloudy 10 - - - -
27/07:00pm 8.9 SSE 7 8 1006.7 - 0.0 - Cloudy 10 - - - -
27/06:30pm 8.9 SSE 7 8 1006.4 - 0.0 - Partly cloudy 10 - - - -
27/06:00pm 9.0 S 5 6 1006.2 - 0.0 - Mostly cloudy 10 - - - -
27/05:30pm 10.3 SW 2 5 1005.8 - 0.0 - Cloudy 10 - - - -
27/05:00pm 10.7 SE 5 7 1005.5 - 0.0 - Cloudy 10 - - - -
27/04:30pm 10.8 SE 5 6 1005.2 - 0.0 - Partly cloudy 10 - - - -
27/04:00pm 11.0 SE 4 5 1005.0 - 0.0 - Partly cloudy 10 - - - -
27/03:30pm 12.0 SE 4 5 1004.8 - 0.0 - - 10 - - - -
27/03:00pm 12.6 CALM 0 0 1004.4 - 0.0 - Cloudy 10 - - - -
27/02:30pm 12.9 WSW 4 5 1004.3 - 0.0 - - 10 - - - -
27/02:00pm 12.7 WSW 5 6 1004.2 - 0.0 - - 10 - - - -
27/01:30pm 12.6 SW 4 6 1004.2 - 0.0 - - 10 - - - -
27/01:00pm 12.5 SW 6 8 1004.2 - 0.0 - - 10 - - - -
27/12:30pm 11.9 SW 6 7 1004.3 - 0.0 - - 10 - - - -
27/12:00pm 11.4 SW 5 6 1004.6 - 0.0 - Mostly cloudy 10 - - - -
27/11:30am 10.8 S 5 6 1004.7 - 0.0 - - 10 - - - -
27/11:00am 9.6 SSW 6 8 1004.8 - 0.0 - - 10 - - - -
27/10:30am 9.1 S 5 6 1004.9 - 0.0 - - 10 - - - -
27/10:00am 7.9 SSW 6 7 1004.7 - 0.0 - - 10 - - - -
27/09:30am 7.3 S 5 6 1004.5 - 0.0 - - 10 - - - -
27/09:00am 6.3 S 6 8 1004.5 - 0.0 - Partly cloudy 10 - - - -
27/08:30am 5.3 S 7 7 1004.3 - 0.0 - - 10 - - - -
27/08:00am 4.8 SSE 6 7 1004.0 - 0.0 - - 10 - - - -
27/07:30am 4.7 S 5 6 1003.7 - 0.0 - - 10 - - - -
27/07:00am 4.8 SSE 6 7 1003.4 - 0.0 - - 10 - - - -
27/06:30am 4.9 SSE 5 6 1003.3 - 0.0 - - 10 - - - -
27/06:00am 4.9 SSE 6 7 1003.1 - 0.0 - Mostly cloudy 10 - - - -
27/05:30am 5.2 S 6 7 1003.0 - 0.0 - - 10 - - - -
27/05:00am 5.4 SSE 6 9 1003.0 - 0.0 - - 10 - - - -
27/04:30am 4.7 S 6 7 1003.1 - 0.0 - - 10 - - - -
27/04:00am 4.4 SSW 4 5 1003.0 - 0.0 - - 10 - - - -
27/03:30am 4.6 S 5 6 1002.9 - 0.0 - - 10 - - - -
27/03:00am 4.8 S 6 7 1003.0 - 0.0 - Mostly cloudy 10 - - - -
27/02:30am 5.2 S 6 7 1002.9 - 0.0 - - 10 - - - -
27/02:00am 5.6 S 6 7 1002.8 - 0.0 - - 10 - - - -
27/01:30am 5.6 SSE 6 7 1002.8 - 0.0 - - 10 - - - -
27/01:00am 5.6 S 6 7 1002.8 - 0.0 - - 10 - - - -
27/12:30am 5.9 S 5 6 1002.8 - 0.0 - - 10 - - - -
27/12:00am 6.6 SSW 4 5 1002.9 - 0.0 - Mostly cloudy 10 - - - -
 
Date/Time
EST
Temp

°C
Wind Pressure Rain
since 9am
mm
Weather Cloud Vis
km
Sea
Height
m
Swell
Dir
 
Speed
knots
Gust
knots
hPa Trend Height
m
Period
s
Dir
26/11:30pm 6.4 S 4 6 1002.9 - 0.0 - - 10 - - - -
26/11:00pm 6.6 SSE 5 6 1002.9 - 0.0 - - 10 - - - -
26/10:30pm 6.6 SSW 5 6 1002.8 - 0.0 - - 10 - - - -
26/10:00pm 6.9 S 5 5 1002.8 - 0.0 - - 10 - - - -
26/09:30pm 6.5 SSW 6 7 1002.8 - 0.0 - - 10 - - - -
26/09:00pm 7.1 S 7 8 1002.6 - 0.0 - Cloudy 10 - - - -
26/08:30pm 7.6 SSE 5 7 1002.2 - 0.0 - - 10 - - - -
26/08:00pm 8.7 SSE 8 9 1002.2 - 0.0 - - 10 - - - -
26/07:30pm 7.9 S 6 8 1002.2 - 0.0 - - 10 - - - -
26/07:00pm 8.6 SSE 5 6 1002.0 - 0.0 - Partly cloudy 10 - - - -
26/06:30pm 8.5 SSE 6 7 1001.7 - 0.0 - - 10 - - - -
26/06:00pm 8.9 S 5 6 1001.5 - 0.0 - Cloudy 10 - - - -
26/05:30pm 10.1 SSE 4 5 1001.2 - 0.0 - Partly cloudy 10 - - - -
26/05:00pm 10.5 CALM 0 0 1000.9 - 0.0 - Partly cloudy 10 - - - -
26/04:30pm 12.1 W 1 3 1000.6 - 0.0 - Cloudy 10 - - - -
26/04:00pm 12.6 CALM 0 0 1000.3 - 0.0 - Partly cloudy 10 - - - -
26/03:30pm 12.5 S 5 7 1000.0 - 0.0 - Partly cloudy 10 - - - -
26/03:00pm 13.0 S 6 8 999.7 - 0.0 - Cloudy 10 - - - -
26/02:30pm 12.7 SSE 7 9 999.6 - 0.0 - Partly cloudy 10 - - - -
26/02:00pm 12.9 S 6 8 999.9 - 0.0 - Partly cloudy 10 - - - -
26/01:30pm 12.9 S 8 11 1000.0 - 0.0 - Partly cloudy 10 - - - -
26/01:00pm 12.8 S 8 11 1000.1 - 0.0 - Partly cloudy 10 - - - -
26/12:30pm 12.6 S 9 13 1000.3 - 0.0 - Cloudy 10 - - - -
26/12:00pm 12.3 S 9 12 1000.5 - 0.0 - Cloudy 10 - - - -
26/11:30am 11.8 S 9 12 1000.6 - 0.0 - Cloudy 10 - - - -
26/11:00am 11.4 S 9 11 1000.9 - 0.0 - Partly cloudy 10 - - - -
26/10:30am 10.9 S 8 11 1001.2 - 0.0 - Partly cloudy 10 - - - -
26/10:17am 10.8 S 9 11 1001.2 - 0.0 - Partly cloudy 10 - - - -
26/10:00am 10.9 S 8 11 1001.3 - 0.0 - Partly cloudy 10 - - - -
26/09:47am 10.8 S 7 9 1001.4 - 0.0 - Partly cloudy 10 - - - -
26/09:30am 10.9 S 8 11 1001.4 - 0.0 - Partly cloudy 10 - - - -
26/09:00am 10.6 SSW 6 9 1001.3 - 1.6 - Mostly cloudy 10 - - - -
26/08:30am 10.4 S 7 9 1001.2 - 1.6 - Partly cloudy 10 - - - -
26/08:00am 10.0 S 6 8 1001.3 - 1.6 - Partly cloudy 10 - - - -
26/07:30am 10.2 S 7 9 1001.3 - 1.6 - Partly cloudy 10 - - - -
26/07:00am 10.2 S 7 8 1001.1 - 1.6 - Partly cloudy 10 - - - -
26/06:30am 10.2 SSW 7 8 1001.2 - 1.6 - Partly cloudy 10 - - - -
26/06:25am 10.4 SSW 7 8 1001.3 - 1.6 - Partly cloudy 10 - - - -
26/06:20am 10.6 SSW 6 8 1001.3 - 1.6 - Partly cloudy 10 - - - -
26/06:00am 10.2 SSE 5 7 1001.3 - 1.6 - Cloudy 0.5 - - - -
26/05:45am 10.8 S 4 6 1001.3 - 1.6 - Partly cloudy 5 - - - -
26/05:42am 10.9 S 4 7 1001.4 - 1.6 - Partly cloudy 10 - - - -
26/05:30am 11.6 SSE 6 7 1001.1 - 1.6 - Cloudy 10 - - - -
26/05:20am 11.8 S 6 8 1001.2 - 1.6 - Cloudy 10 - - - -
26/05:00am 12.8 SSW 5 7 1001.4 - 1.6 - Partly cloudy 10 - - - -
26/04:47am 13.3 NW 6 8 1001.4 - 1.6 - Partly cloudy 10 - - - -
26/04:30am 13.5 NW 10 12 1001.4 - 1.6 - Cloudy 10 - - - -
26/04:09am 13.6 NNW 11 15 1001.4 - 1.6 - Partly cloudy 10 - - - -
26/04:00am 13.7 NNW 13 17 1001.4 - 1.6 - Partly cloudy 10 - - - -
26/03:30am 13.5 NW 16 19 1001.7 - 1.6 - Partly cloudy 10 - - - -
26/03:00am 13.4 NW 17 21 1002.1 - 1.6 Rain Cloudy 10 - - - -
26/02:51am 13.5 NW 16 20 1002.1 - 1.6 - Partly cloudy 10 - - - -
26/02:30am 13.1 NW 17 21 1002.5 - 1.6 - Partly cloudy 4 - - - -
26/02:00am 13.1 NW 14 19 1003.0 - 1.0 - Partly cloudy 4 - - - -
26/01:30am 13.1 NW 15 20 1003.3 - 0.2 - Partly cloudy 5 - - - -
26/01:27am 13.1 NW 15 20 1003.3 - 0.2 - Partly cloudy 6 - - - -
26/01:06am 13.3 NW 13 16 1003.6 - 0.2 - Partly cloudy 9 - - - -
26/01:00am 13.1 NW 13 16 1003.5 - 0.2 - Partly cloudy 10 - - - -
26/12:30am 12.7 WNW 13 16 1004.0 - 0.0 - Partly cloudy 4 - - - -
26/12:17am 12.8 NW 15 20 1004.1 - 0.0 - Partly cloudy 6 - - - -
26/12:00am 13.1 NW 12 15 1004.6 - 0.0 Showers Cloudy 9 - - - -
 
Date/Time
EST
Temp

°C
Wind Pressure Rain
since 9am
mm
Weather Cloud Vis
km
Sea
Height
m
Swell
Dir
 
Speed
knots
Gust
knots
hPa Trend Height
m
Period
s
Dir
25/11:53pm 13.1 NW 14 17 1004.7 - 0.0 - Partly cloudy 10 - - - -
25/11:38pm 13.2 NW 13 16 1004.8 - 0.0 - Partly cloudy 6 - - - -
25/11:30pm 13.3 WNW 15 19 1004.9 - 0.0 - Partly cloudy 10 - - - -
25/11:03pm 14.0 NW 16 20 1005.2 - 0.0 - Partly cloudy 10 - - - -
25/11:00pm 13.9 NW 16 20 1005.2 - 0.0 - Partly cloudy 10 - - - -
25/10:49pm 13.9 NNW 16 19 1005.3 - 0.0 - Partly cloudy 10 - - - -
25/10:30pm 14.0 NW 15 20 1005.6 - 0.0 - Partly cloudy 10 - - - -
25/10:00pm 13.8 NW 17 22 1006.1 - 0.0 - Partly cloudy 10 - - - -
25/09:30pm 13.7 NNW 18 23 1006.3 - 0.0 - Partly cloudy 10 - - - -
25/09:00pm 13.6 NW 18 22 1006.3 - 0.0 - Cloudy 10 - - - -
25/08:58pm 13.6 NW 18 22 1006.3 - 0.0 - Partly cloudy 10 - - - -
25/08:46pm 13.5 WNW 13 22 1006.4 - 0.0 - Partly cloudy 10 - - - -
25/08:30pm 11.5 W 5 12 1006.6 - 0.0 - Cloudy 10 - - - -
25/08:24pm 9.9 S 3 6 1006.6 - 0.0 - Partly cloudy 10 - - - -
25/08:00pm 9.0 S 7 9 1006.6 - 0.0 - Partly cloudy 10 - - - -
25/07:30pm 9.2 S 8 9 1006.6 - 0.0 - Partly cloudy 10 - - - -
25/07:00pm 9.7 SSE 9 11 1006.6 - 0.0 - Partly cloudy 10 - - - -
25/06:30pm 10.0 SSE 8 11 1006.9 - 0.0 - Partly cloudy 10 - - - -
25/06:00pm 9.7 SSE 7 9 1007.1 - 0.0 - Mostly cloudy 10 - - - -
25/05:30pm 9.5 S 7 9 1007.3 - 0.0 - Partly cloudy 10 - - - -
25/05:00pm 9.7 SSE 7 9 1007.4 - 0.0 - Partly cloudy 10 - - - -
25/04:30pm 9.9 S 5 7 1007.7 - 0.0 - Partly cloudy 10 - - - -

Other Formats:

Comma delimited format used in spreadsheet applications
http://www.bom.gov.au/fwo/IDT60701/IDT60701.95960.axf

JavaScript Object Notation format (JSON) in row-major order
http://www.bom.gov.au/fwo/IDT60701/IDT60701.95960.json